createdAt,value
2018-03-29T00:01:03.445Z,6.00
2018-03-29T00:03:29.722Z,6.00
2018-03-29T00:05:55.921Z,6.00
2018-03-29T00:08:22.889Z,5.80
2018-03-29T00:10:49.084Z,5.80
2018-03-29T00:13:15.332Z,5.60
2018-03-29T00:15:41.588Z,5.50
2018-03-29T00:18:07.805Z,5.50
2018-03-29T00:20:34.029Z,5.40
2018-03-29T00:23:00.215Z,5.40
2018-03-29T00:25:27.164Z,5.20
2018-03-29T00:27:54.093Z,5.10
2018-03-29T00:30:21.056Z,5.10
2018-03-29T00:32:47.992Z,5.10
2018-03-29T00:35:14.949Z,5.10
2018-03-29T00:37:41.172Z,5.10
2018-03-29T00:40:08.137Z,5.10
2018-03-29T00:42:34.339Z,5.00
2018-03-29T00:45:01.304Z,5.00
2018-03-29T00:47:27.502Z,4.90
2018-03-29T00:49:53.731Z,4.90
2018-03-29T00:52:19.925Z,4.80
2018-03-29T00:54:46.107Z,4.80
2018-03-29T00:57:13.068Z,4.70
2018-03-29T00:59:39.256Z,4.70
2018-03-29T01:02:05.484Z,4.70
2018-03-29T01:04:31.807Z,4.70
2018-03-29T01:06:58.224Z,4.70
2018-03-29T01:09:24.560Z,4.70
2018-03-29T01:11:50.804Z,4.70
2018-03-29T01:14:17.010Z,4.70
2018-03-29T01:16:43.770Z,4.60
2018-03-29T01:19:10.510Z,4.60
2018-03-29T01:21:37.355Z,4.60
2018-03-29T01:24:04.404Z,4.70
2018-03-29T01:26:30.618Z,4.60
2018-03-29T01:28:56.835Z,4.60
2018-03-29T01:31:23.024Z,4.60
2018-03-29T01:33:49.985Z,4.50
2018-03-29T01:36:16.189Z,4.50
2018-03-29T01:38:42.410Z,4.50
2018-03-29T01:41:08.603Z,4.50
2018-03-29T01:43:34.816Z,4.40
2018-03-29T01:46:01.014Z,4.40
2018-03-29T01:48:27.984Z,4.40
2018-03-29T01:50:54.182Z,4.40
2018-03-29T01:53:21.179Z,4.40
2018-03-29T01:55:47.363Z,4.30
2018-03-29T01:58:14.297Z,4.20
2018-03-29T02:00:40.783Z,4.20
2018-03-29T02:03:07.002Z,4.20
2018-03-29T02:05:33.196Z,4.10
2018-03-29T02:08:00.137Z,4.10
2018-03-29T02:10:26.344Z,4.10
2018-03-29T02:12:52.532Z,4.00
2018-03-29T02:15:18.754Z,4.00
2018-03-29T02:17:44.969Z,3.90
2018-03-29T02:20:11.930Z,3.60
2018-03-29T02:22:38.127Z,3.70
2018-03-29T02:25:05.097Z,3.50
2018-03-29T02:27:31.292Z,3.50
2018-03-29T02:29:57.508Z,3.50
2018-03-29T02:32:24.144Z,3.40
2018-03-29T02:34:50.377Z,3.40
2018-03-29T02:37:16.569Z,3.40
2018-03-29T02:39:42.785Z,3.40
2018-03-29T02:42:08.971Z,3.40
2018-03-29T02:44:35.182Z,3.40
2018-03-29T02:47:01.364Z,3.40
2018-03-29T02:49:28.324Z,3.40
2018-03-29T02:51:54.515Z,3.40
2018-03-29T02:54:20.844Z,3.40
2018-03-29T02:56:47.779Z,3.40
2018-03-29T02:59:13.968Z,3.40
2018-03-29T03:01:40.183Z,3.50
2018-03-29T03:04:06.429Z,3.50
2018-03-29T03:06:32.621Z,3.50
2018-03-29T03:08:59.554Z,3.40
2018-03-29T03:11:26.516Z,3.40
2018-03-29T03:13:53.450Z,3.30
2018-03-29T03:16:20.408Z,3.20
2018-03-29T03:18:47.356Z,3.20
2018-03-29T03:21:14.305Z,3.10
2018-03-29T03:23:40.502Z,3.10
2018-03-29T03:26:06.731Z,3.10
2018-03-29T03:28:32.924Z,3.00
2018-03-29T03:30:59.137Z,3.00
2018-03-29T03:33:25.336Z,2.90
2018-03-29T03:35:52.296Z,3.00
2018-03-29T03:38:19.233Z,3.00
2018-03-29T03:40:46.198Z,2.90
2018-03-29T03:43:12.388Z,2.90
2018-03-29T03:45:38.644Z,2.80
2018-03-29T03:48:05.576Z,2.70
2018-03-29T03:50:32.893Z,2.70
2018-03-29T03:52:59.084Z,2.70
2018-03-29T03:55:25.267Z,2.70
2018-03-29T03:57:51.481Z,2.70
2018-03-29T04:00:17.991Z,2.70
2018-03-29T04:02:44.225Z,2.60
2018-03-29T04:05:10.427Z,2.60
2018-03-29T04:07:36.645Z,2.60
2018-03-29T04:10:03.575Z,2.60
2018-03-29T04:12:29.812Z,2.60
2018-03-29T04:14:56.753Z,2.60
2018-03-29T04:17:22.988Z,2.50
2018-03-29T04:19:49.980Z,2.50
2018-03-29T04:22:16.219Z,2.50
2018-03-29T04:24:42.400Z,2.50
2018-03-29T04:27:09.513Z,2.50
2018-03-29T04:29:35.717Z,2.50
2018-03-29T04:32:01.932Z,2.50
2018-03-29T04:34:28.162Z,2.50
2018-03-29T04:36:54.356Z,2.50
2018-03-29T04:39:21.319Z,2.50
2018-03-29T04:41:48.252Z,2.50
2018-03-29T04:44:15.213Z,2.40
2018-03-29T04:46:41.398Z,2.40
2018-03-29T04:49:07.613Z,2.40
2018-03-29T04:51:33.805Z,2.40
2018-03-29T04:54:00.016Z,2.40
2018-03-29T04:56:26.968Z,2.40
2018-03-29T04:58:54.177Z,2.40
2018-03-29T05:01:20.477Z,2.40
2018-03-29T05:03:46.672Z,2.40
2018-03-29T05:06:13.626Z,2.40
2018-03-29T05:08:40.621Z,2.40
2018-03-29T05:11:06.828Z,2.40
2018-03-29T05:13:33.020Z,2.40
2018-03-29T05:15:59.976Z,2.40
2018-03-29T05:18:27.000Z,2.30
2018-03-29T05:20:53.200Z,2.30
2018-03-29T05:23:19.465Z,2.20
2018-03-29T05:25:46.428Z,2.30
2018-03-29T05:28:13.360Z,2.30
2018-03-29T05:30:40.329Z,2.40
2018-03-29T05:33:06.522Z,2.40
2018-03-29T05:35:32.740Z,2.40
2018-03-29T05:37:58.929Z,2.40
2018-03-29T05:40:25.149Z,2.40
2018-03-29T05:42:51.368Z,2.40
2018-03-29T05:45:18.324Z,2.50
2018-03-29T05:47:44.518Z,2.40
2018-03-29T05:50:10.728Z,2.40
2018-03-29T05:52:36.912Z,2.50
2018-03-29T05:55:03.130Z,2.50
2018-03-29T05:57:29.337Z,2.70
2018-03-29T05:59:56.292Z,3.40
2018-03-29T06:02:23.293Z,3.90
2018-03-29T06:04:49.509Z,3.90
2018-03-29T06:07:15.708Z,4.00
2018-03-29T06:09:41.920Z,3.80
2018-03-29T06:12:08.856Z,3.30
2018-03-29T06:14:50.156Z,3.30
2018-03-29T06:17:23.116Z,3.10
2018-03-29T06:19:49.333Z,3.10
2018-03-29T06:22:15.536Z,3.10
2018-03-29T06:24:41.732Z,3.00
2018-03-29T06:27:08.705Z,3.00
2018-03-29T06:29:34.900Z,3.00
2018-03-29T06:32:01.862Z,2.90
2018-03-29T06:34:28.058Z,2.90
2018-03-29T06:36:54.277Z,3.00
2018-03-29T06:39:20.477Z,3.00
2018-03-29T06:41:46.688Z,3.10
2018-03-29T06:44:12.876Z,3.20
2018-03-29T06:46:39.107Z,3.30
2018-03-29T06:49:06.036Z,3.80
2018-03-29T06:51:32.316Z,3.80
2018-03-29T06:53:58.503Z,4.10
2018-03-29T06:56:24.735Z,4.20
2018-03-29T06:58:50.929Z,4.60
2018-03-29T07:01:17.125Z,4.60
2018-03-29T07:03:43.343Z,4.90
2018-03-29T07:06:10.275Z,5.30
2018-03-29T07:08:37.232Z,5.30
2018-03-29T07:11:04.169Z,5.20
2018-03-29T07:13:31.205Z,4.90
2018-03-29T07:15:57.500Z,4.90
2018-03-29T07:18:23.745Z,4.70
2018-03-29T07:20:49.940Z,5.00
2018-03-29T07:23:16.160Z,5.90
2018-03-29T07:25:42.357Z,5.90
2018-03-29T07:28:09.320Z,6.20
2018-03-29T07:30:36.269Z,5.70
2018-03-29T07:33:02.500Z,5.70
2018-03-29T07:35:29.432Z,6.60
2018-03-29T07:37:56.400Z,7.10
2018-03-29T07:40:22.633Z,7.10
2018-03-29T07:42:48.912Z,7.70
2018-03-29T07:45:15.108Z,8.30
2018-03-29T07:47:41.325Z,8.30
2018-03-29T07:50:07.516Z,8.60
2018-03-29T07:52:33.736Z,8.10
2018-03-29T07:54:59.921Z,7.50
2018-03-29T07:57:26.140Z,6.80
2018-03-29T07:59:52.328Z,6.10
2018-03-29T08:02:19.255Z,5.50
2018-03-29T08:04:45.464Z,5.40
2018-03-29T08:07:11.677Z,5.30
2018-03-29T08:09:37.875Z,5.40
2018-03-29T08:12:04.808Z,5.20
2018-03-29T08:14:31.024Z,5.20
2018-03-29T08:16:57.239Z,5.00
2018-03-29T08:19:23.460Z,4.70
2018-03-29T08:21:49.670Z,4.60
2018-03-29T08:24:15.903Z,4.50
2018-03-29T08:26:42.090Z,4.50
2018-03-29T08:29:09.061Z,4.30
2018-03-29T08:31:35.276Z,4.30
2018-03-29T08:34:01.476Z,4.00
2018-03-29T08:36:27.697Z,4.10
2018-03-29T08:38:54.676Z,4.30
2018-03-29T08:41:21.700Z,4.50
2018-03-29T08:43:47.915Z,4.50
2018-03-29T08:46:14.105Z,4.80
2018-03-29T08:48:40.346Z,5.30
2018-03-29T08:51:06.549Z,5.90
2018-03-29T08:53:32.780Z,6.20
2018-03-29T08:55:58.980Z,6.50
2018-03-29T08:58:25.172Z,6.50
2018-03-29T09:00:51.381Z,6.30
2018-03-29T09:03:17.581Z,6.20
2018-03-29T09:05:44.558Z,6.20
2018-03-29T09:08:10.780Z,6.20
2018-03-29T09:10:36.996Z,6.00
2018-03-29T09:13:03.196Z,5.90
2018-03-29T09:15:29.473Z,5.90
2018-03-29T09:17:56.468Z,5.70
2018-03-29T09:20:22.680Z,5.70
2018-03-29T09:22:48.949Z,5.50
2018-03-29T09:25:15.908Z,5.70
2018-03-29T09:27:42.366Z,5.70
2018-03-29T09:30:08.594Z,5.90
2018-03-29T09:32:34.876Z,6.00
2018-03-29T09:35:01.068Z,6.30
2018-03-29T09:37:27.345Z,6.80
2018-03-29T09:39:54.304Z,8.10
2018-03-29T09:42:20.491Z,8.10
2018-03-29T09:44:46.704Z,7.80
2018-03-29T09:47:12.897Z,7.30
2018-03-29T09:49:39.116Z,7.50
2018-03-29T09:52:06.047Z,9.80
2018-03-29T09:54:33.009Z,8.60
2018-03-29T09:56:59.218Z,8.60
2018-03-29T09:59:26.175Z,7.60
2018-03-29T10:01:53.136Z,7.50
2018-03-29T10:04:22.248Z,7.50
2018-03-29T10:06:48.520Z,7.90
2018-03-29T10:09:14.776Z,7.50
2018-03-29T10:11:41.003Z,7.00
2018-03-29T10:14:07.932Z,6.70
2018-03-29T10:16:34.171Z,6.70
2018-03-29T10:19:01.208Z,6.70
2018-03-29T10:21:27.401Z,6.70
2018-03-29T10:23:53.601Z,6.60
2018-03-29T10:26:19.824Z,6.40
2018-03-29T10:28:46.747Z,6.20
2018-03-29T10:31:12.961Z,6.20
2018-03-29T10:33:39.153Z,6.60
2018-03-29T10:36:05.368Z,7.70
2018-03-29T10:38:31.564Z,9.90
2018-03-29T10:40:58.549Z,9.40
2018-03-29T10:43:24.748Z,9.40
2018-03-29T10:45:51.681Z,11.70
2018-03-29T10:48:17.898Z,11.60
2018-03-29T10:50:44.088Z,10.70
2018-03-29T10:53:10.337Z,10.40
2018-03-29T10:55:36.561Z,9.80
2018-03-29T10:58:02.829Z,9.60
2018-03-29T11:00:28.990Z,9.10
2018-03-29T11:02:55.224Z,8.90
2018-03-29T11:05:21.420Z,8.60
2018-03-29T11:07:48.384Z,8.30
2018-03-29T11:10:14.577Z,8.30
2018-03-29T11:12:40.763Z,8.10
2018-03-29T11:15:07.040Z,7.90
2018-03-29T11:17:33.288Z,7.40
2018-03-29T11:20:00.224Z,6.90
2018-03-29T11:22:27.196Z,7.00
2018-03-29T11:24:53.392Z,7.00
2018-03-29T11:27:19.681Z,7.10
2018-03-29T11:29:45.874Z,6.90
2018-03-29T11:32:12.812Z,6.60
2018-03-29T11:34:39.776Z,6.70
2018-03-29T11:37:05.967Z,6.60
2018-03-29T11:39:32.256Z,6.70
2018-03-29T11:41:58.451Z,6.60
2018-03-29T11:44:25.400Z,6.60
2018-03-29T11:46:52.332Z,6.70
2018-03-29T11:49:19.293Z,6.80
2018-03-29T11:51:46.224Z,7.10
2018-03-29T11:54:13.685Z,7.20
2018-03-29T11:56:41.035Z,7.20
2018-03-29T11:59:08.017Z,7.00
2018-03-29T12:01:34.208Z,7.00
2018-03-29T12:04:00.436Z,6.80
2018-03-29T12:06:27.376Z,6.60
2018-03-29T12:08:54.312Z,6.50
2018-03-29T12:11:20.544Z,6.50
2018-03-29T12:13:47.517Z,6.20
2018-03-29T12:16:14.472Z,6.10
2018-03-29T12:18:41.437Z,6.00
2018-03-29T12:21:07.672Z,6.00
2018-03-29T12:23:33.875Z,6.00
2018-03-29T12:26:00.862Z,6.10
2018-03-29T12:28:27.061Z,6.10
2018-03-29T12:30:53.284Z,6.50
2018-03-29T12:33:19.476Z,6.90
2018-03-29T12:35:45.692Z,7.10
2018-03-29T12:38:11.908Z,7.40
2018-03-29T12:40:45.271Z,8.70
2018-03-29T12:43:11.473Z,9.60
2018-03-29T12:45:38.436Z,12.00
2018-03-29T12:48:05.445Z,12.50
2018-03-29T12:50:31.612Z,12.40
2018-03-29T12:52:58.892Z,11.60
2018-03-29T12:55:37.532Z,11.50
2018-03-29T12:58:08.809Z,10.50
2018-03-29T13:00:35.025Z,10.20
2018-03-29T13:03:01.236Z,9.50
2018-03-29T13:05:27.507Z,8.90
2018-03-29T13:07:53.676Z,8.60
2018-03-29T13:10:20.037Z,8.50
2018-03-29T13:12:46.239Z,8.30
2018-03-29T13:15:12.470Z,8.00
2018-03-29T13:17:38.710Z,7.90
2018-03-29T13:20:04.940Z,7.80
2018-03-29T13:22:31.127Z,7.40
2018-03-29T13:24:58.064Z,6.80
2018-03-29T13:27:25.053Z,6.80
2018-03-29T13:29:51.288Z,6.70
2018-03-29T13:32:17.486Z,6.70
2018-03-29T13:34:43.728Z,6.60
2018-03-29T13:37:09.928Z,6.70
2018-03-29T13:39:36.867Z,6.60
2018-03-29T13:42:03.820Z,6.70
2018-03-29T13:44:30.776Z,6.80
2018-03-29T13:46:57.057Z,6.80
2018-03-29T13:49:23.284Z,6.80
2018-03-29T13:51:49.797Z,7.00
2018-03-29T13:54:15.980Z,7.10
2018-03-29T13:56:42.940Z,8.00
2018-03-29T13:59:09.876Z,9.60
2018-03-29T14:01:36.841Z,10.90
2018-03-29T14:04:03.028Z,10.80
2018-03-29T14:06:29.244Z,11.00
2018-03-29T14:08:55.456Z,11.60
2018-03-29T14:11:21.713Z,12.20
2018-03-29T14:13:47.936Z,12.20
2018-03-29T14:16:14.133Z,12.90
2018-03-29T14:18:41.980Z,12.50
2018-03-29T14:21:08.176Z,12.50
2018-03-29T14:23:34.412Z,11.60
2018-03-29T14:26:01.349Z,9.30
2018-03-29T14:28:27.555Z,9.30
2018-03-29T14:30:53.777Z,8.70
2018-03-29T14:33:20.028Z,8.30
2018-03-29T14:35:46.268Z,8.30
2018-03-29T14:38:12.442Z,8.80
2018-03-29T14:40:38.721Z,9.60
2018-03-29T14:43:05.672Z,11.50
2018-03-29T14:45:32.641Z,11.10
2018-03-29T14:47:59.588Z,9.70
2018-03-29T14:50:26.553Z,8.70
2018-03-29T14:52:52.816Z,8.70
2018-03-29T14:55:19.028Z,8.10
2018-03-29T14:57:45.219Z,7.70
2018-03-29T15:00:12.184Z,7.30
2018-03-29T15:02:38.388Z,7.30
2018-03-29T15:05:05.355Z,6.80
2018-03-29T15:07:31.545Z,6.70
2018-03-29T15:09:57.731Z,6.40
2018-03-29T15:12:23.936Z,5.80
2018-03-29T15:14:50.156Z,5.20
2018-03-29T15:17:17.111Z,4.40
2018-03-29T15:19:43.346Z,4.40
2018-03-29T15:22:09.531Z,4.30
2018-03-29T15:24:35.726Z,4.10
2018-03-29T15:27:01.980Z,4.00
2018-03-29T15:29:28.178Z,4.60
2018-03-29T15:31:54.388Z,5.50
2018-03-29T15:34:20.580Z,5.80
2018-03-29T15:36:46.892Z,6.00
2018-03-29T15:39:13.094Z,5.60
2018-03-29T15:41:39.316Z,5.20
2018-03-29T15:44:05.512Z,4.70
2018-03-29T15:46:32.480Z,4.50
2018-03-29T15:48:58.688Z,4.50
2018-03-29T15:51:25.680Z,4.60
2018-03-29T15:53:51.897Z,4.60
2018-03-29T15:56:18.094Z,4.70
2018-03-29T15:58:45.108Z,4.80
2018-03-29T16:01:11.309Z,4.80
2018-03-29T16:03:37.530Z,4.90
2018-03-29T16:06:03.736Z,5.50
2018-03-29T16:08:30.708Z,6.40
2018-03-29T16:10:56.895Z,6.40
2018-03-29T16:13:23.829Z,7.30
2018-03-29T16:15:50.044Z,7.30
2018-03-29T16:18:16.289Z,7.40
2018-03-29T16:20:42.479Z,6.70
2018-03-29T16:23:08.713Z,6.20
2018-03-29T16:25:34.913Z,5.80
2018-03-29T16:28:01.108Z,5.70
2018-03-29T16:30:27.325Z,5.50
2018-03-29T16:32:53.519Z,5.30
2018-03-29T16:35:19.737Z,5.40
2018-03-29T16:37:45.933Z,5.60
2018-03-29T16:40:12.897Z,5.80
2018-03-29T16:42:39.113Z,5.80
2018-03-29T16:45:06.098Z,5.80
2018-03-29T16:47:32.288Z,5.80
2018-03-29T16:49:59.247Z,5.80
2018-03-29T16:52:25.452Z,5.80
2018-03-29T16:54:52.415Z,5.80
2018-03-29T16:57:18.612Z,5.80
2018-03-29T16:59:44.829Z,5.70
2018-03-29T17:02:11.013Z,5.70
2018-03-29T17:04:37.632Z,5.60
2018-03-29T17:07:04.593Z,5.20
2018-03-29T17:09:30.791Z,5.10
2018-03-29T17:11:57.013Z,4.90
2018-03-29T17:14:23.212Z,4.70
2018-03-29T17:16:49.551Z,4.50
2018-03-29T17:19:15.820Z,4.40
2018-03-29T17:21:42.104Z,4.30
2018-03-29T17:24:08.323Z,4.20
2018-03-29T17:26:34.508Z,4.10
2018-03-29T17:29:01.468Z,4.10
2018-03-29T17:31:28.423Z,4.00
2018-03-29T17:33:54.646Z,4.00
2018-03-29T17:36:20.848Z,4.00
2018-03-29T17:38:47.040Z,3.90
2018-03-29T17:41:13.306Z,3.90
2018-03-29T17:43:39.471Z,3.80
2018-03-29T17:46:05.685Z,3.80
2018-03-29T17:48:32.620Z,3.80
2018-03-29T17:50:59.580Z,3.80
2018-03-29T17:53:25.775Z,3.70
2018-03-29T17:55:52.739Z,3.60
2018-03-29T17:58:18.965Z,3.70
2018-03-29T18:00:45.238Z,3.60
2018-03-29T18:03:11.428Z,3.60
2018-03-29T18:05:38.409Z,3.50
2018-03-29T18:08:04.606Z,3.50
2018-03-29T18:10:31.557Z,3.40
2018-03-29T18:12:58.520Z,3.30
2018-03-29T18:15:24.737Z,3.30
2018-03-29T18:17:51.697Z,3.20
2018-03-29T18:20:17.919Z,3.10
2018-03-29T18:22:44.116Z,3.10
2018-03-29T18:25:10.348Z,3.00
2018-03-29T18:27:37.304Z,2.90
2018-03-29T18:30:04.242Z,2.80
2018-03-29T18:32:30.456Z,2.80
2018-03-29T18:34:56.653Z,2.80
2018-03-29T18:37:22.880Z,2.70
2018-03-29T18:39:49.072Z,2.70
2018-03-29T18:42:16.036Z,2.60
2018-03-29T18:44:42.228Z,2.60
2018-03-29T18:47:08.646Z,2.60
2018-03-29T18:49:34.844Z,2.60
2018-03-29T18:52:01.032Z,2.60
2018-03-29T18:54:27.992Z,2.40
2018-03-29T18:56:54.188Z,2.40
2018-03-29T18:59:20.401Z,2.40
2018-03-29T19:01:46.588Z,2.30
2018-03-29T19:04:12.807Z,2.30
2018-03-29T19:06:39.060Z,2.30
2018-03-29T19:09:05.268Z,2.30
2018-03-29T19:11:31.455Z,2.30
2018-03-29T19:13:57.702Z,2.20
2018-03-29T19:16:24.637Z,2.20
2018-03-29T19:18:50.876Z,2.20
2018-03-29T19:21:17.825Z,2.20
2018-03-29T19:23:44.775Z,2.10
2018-03-29T19:26:11.708Z,2.10
2018-03-29T19:28:37.944Z,2.10
2018-03-29T19:31:04.884Z,2.00
2018-03-29T19:33:31.073Z,2.00
2018-03-29T19:35:57.360Z,1.90
2018-03-29T19:38:24.292Z,1.70
2018-03-29T19:40:50.503Z,1.70
2018-03-29T19:43:16.700Z,1.60
2018-03-29T19:45:42.960Z,1.50
2018-03-29T19:48:09.152Z,1.40
2018-03-29T19:50:35.392Z,1.40
2018-03-29T19:53:01.608Z,1.40
2018-03-29T19:55:27.949Z,1.40
2018-03-29T19:57:54.156Z,1.40
2018-03-29T20:00:20.356Z,1.40
2018-03-29T20:02:47.338Z,1.40
2018-03-29T20:05:13.527Z,1.40
2018-03-29T20:07:39.748Z,1.30
2018-03-29T20:10:05.947Z,1.30
2018-03-29T20:12:32.190Z,1.20
2018-03-29T20:14:58.391Z,1.20
2018-03-29T20:17:24.645Z,1.20
2018-03-29T20:19:50.852Z,1.20
2018-03-29T20:22:17.087Z,1.10
2018-03-29T20:24:43.281Z,1.10
2018-03-29T20:27:10.492Z,1.10
2018-03-29T20:29:36.685Z,1.10
2018-03-29T20:32:02.881Z,1.10
2018-03-29T20:34:29.837Z,1.00
2018-03-29T20:36:56.772Z,0.90
2018-03-29T20:39:23.732Z,0.80
2018-03-29T20:41:49.964Z,0.80
2018-03-29T20:44:16.913Z,0.80
2018-03-29T20:46:43.121Z,0.80
2018-03-29T20:49:10.093Z,0.80
2018-03-29T20:51:36.289Z,0.80
2018-03-29T20:54:03.256Z,0.80
2018-03-29T20:56:29.449Z,0.70
2018-03-29T20:58:55.656Z,0.70
2018-03-29T21:01:22.596Z,0.60
2018-03-29T21:03:48.812Z,0.60
2018-03-29T21:06:15.009Z,0.50
2018-03-29T21:08:41.993Z,0.50
2018-03-29T21:11:08.183Z,0.50
2018-03-29T21:13:35.120Z,0.60
2018-03-29T21:16:02.076Z,0.70
2018-03-29T21:18:29.036Z,0.70
2018-03-29T21:20:55.317Z,0.70
2018-03-29T21:23:21.562Z,0.60
2018-03-29T21:25:47.774Z,0.60
2018-03-29T21:28:13.964Z,0.60
2018-03-29T21:30:40.176Z,0.60
2018-03-29T21:33:06.397Z,0.60
2018-03-29T21:35:32.683Z,0.50
2018-03-29T21:37:58.876Z,0.40
2018-03-29T21:40:25.092Z,0.50
2018-03-29T21:42:51.284Z,0.50
2018-03-29T21:45:17.505Z,0.40
2018-03-29T21:47:43.692Z,0.40
2018-03-29T21:50:09.909Z,0.40
2018-03-29T21:52:36.102Z,0.40
2018-03-29T21:55:02.324Z,0.40
2018-03-29T21:57:28.513Z,0.50
2018-03-29T21:59:54.727Z,0.50
2018-03-29T22:02:20.928Z,0.50
2018-03-29T22:04:47.899Z,0.50
2018-03-29T22:07:14.088Z,0.50
2018-03-29T22:09:41.783Z,0.40
2018-03-29T22:12:08.722Z,0.40
2018-03-29T22:14:35.698Z,0.40
2018-03-29T22:17:01.901Z,0.30
2018-03-29T22:19:28.906Z,0.30
2018-03-29T22:21:55.104Z,0.20
2018-03-29T22:24:21.292Z,0.30
2018-03-29T22:26:48.248Z,0.40
2018-03-29T22:29:15.176Z,0.30
2018-03-29T22:31:41.383Z,0.30
2018-03-29T22:34:07.614Z,0.30
2018-03-29T22:36:33.841Z,0.20
2018-03-29T22:39:00.037Z,0.20
2018-03-29T22:41:26.261Z,0.30
2018-03-29T22:43:52.444Z,0.20
2018-03-29T22:46:18.661Z,0.10
2018-03-29T22:48:44.847Z,0.10
2018-03-29T22:51:11.081Z,0.10
2018-03-29T22:53:37.276Z,0.20
2018-03-29T22:56:04.237Z,0.30
2018-03-29T22:58:30.433Z,0.30
2018-03-29T23:00:56.648Z,0.30
2018-03-29T23:03:22.837Z,0.30
2018-03-29T23:05:49.056Z,0.40
2018-03-29T23:08:15.265Z,0.40
2018-03-29T23:10:42.196Z,0.40
2018-03-29T23:13:08.445Z,0.40
2018-03-29T23:15:35.377Z,0.40
2018-03-29T23:18:02.345Z,0.40
2018-03-29T23:20:29.332Z,0.40
2018-03-29T23:22:55.548Z,0.40
2018-03-29T23:25:21.761Z,0.40
2018-03-29T23:27:47.985Z,0.50
2018-03-29T23:30:14.204Z,0.50
2018-03-29T23:32:41.133Z,0.50
2018-03-29T23:35:07.340Z,0.40
2018-03-29T23:37:33.542Z,0.40
2018-03-29T23:39:59.761Z,0.40
2018-03-29T23:42:26.692Z,0.30
2018-03-29T23:44:52.899Z,0.30
2018-03-29T23:47:19.842Z,0.30
2018-03-29T23:49:46.836Z,0.30
2018-03-29T23:52:13.029Z,0.20
2018-03-29T23:54:39.965Z,0.30
2018-03-29T23:57:06.924Z,0.20
2018-03-29T23:59:33.864Z,0.20
